sensor_id;sensor_type;location;lat;lon;timestamp;temperature;humidity
72106;SHT30;59975;47.646;18.318;2022-07-23T00:04:36;23.43;65.69
72106;SHT30;59975;47.646;18.318;2022-07-23T00:07:01;23.44;65.66
72106;SHT30;59975;47.646;18.318;2022-07-23T00:09:28;23.43;65.15
72106;SHT30;59975;47.646;18.318;2022-07-23T00:11:56;23.44;65.29
72106;SHT30;59975;47.646;18.318;2022-07-23T00:14:22;23.43;65.82
72106;SHT30;59975;47.646;18.318;2022-07-23T00:16:47;23.41;66.68
72106;SHT30;59975;47.646;18.318;2022-07-23T00:19:13;23.37;67.30
72106;SHT30;59975;47.646;18.318;2022-07-23T00:21:40;23.30;68.42
72106;SHT30;59975;47.646;18.318;2022-07-23T00:27:28;23.23;68.28
72106;SHT30;59975;47.646;18.318;2022-07-23T00:29:53;23.19;68.17
72106;SHT30;59975;47.646;18.318;2022-07-23T00:32:19;23.14;68.15
72106;SHT30;59975;47.646;18.318;2022-07-23T00:34:44;23.11;68.42
72106;SHT30;59975;47.646;18.318;2022-07-23T00:37:10;23.09;68.21
72106;SHT30;59975;47.646;18.318;2022-07-23T00:39:36;23.04;68.21
72106;SHT30;59975;47.646;18.318;2022-07-23T00:42:02;23.00;68.15
72106;SHT30;59975;47.646;18.318;2022-07-23T00:44:29;22.97;67.61
72106;SHT30;59975;47.646;18.318;2022-07-23T00:50:18;22.95;67.50
72106;SHT30;59975;47.646;18.318;2022-07-23T00:52:45;22.89;67.31
72106;SHT30;59975;47.646;18.318;2022-07-23T00:55:12;22.92;67.00
72106;SHT30;59975;47.646;18.318;2022-07-23T00:57:39;22.89;67.26
72106;SHT30;59975;47.646;18.318;2022-07-23T01:03:28;22.83;69.76
72106;SHT30;59975;47.646;18.318;2022-07-23T01:09:17;22.73;72.79
72106;SHT30;59975;47.646;18.318;2022-07-23T01:11:44;22.70;73.62
72106;SHT30;59975;47.646;18.318;2022-07-23T01:16:54;22.60;74.18
72106;SHT30;59975;47.646;18.318;2022-07-23T01:19:20;22.56;74.22
72106;SHT30;59975;47.646;18.318;2022-07-23T01:21:49;22.53;74.14
72106;SHT30;59975;47.646;18.318;2022-07-23T01:24:16;22.46;74.01
72106;SHT30;59975;47.646;18.318;2022-07-23T01:26:45;22.45;73.82
72106;SHT30;59975;47.646;18.318;2022-07-23T01:29:11;22.42;73.69
72106;SHT30;59975;47.646;18.318;2022-07-23T01:31:38;22.41;73.62
72106;SHT30;59975;47.646;18.318;2022-07-23T01:34:04;22.42;73.64
72106;SHT30;59975;47.646;18.318;2022-07-23T01:36:33;22.42;73.99
72106;SHT30;59975;47.646;18.318;2022-07-23T01:39:00;22.44;71.69
72106;SHT30;59975;47.646;18.318;2022-07-23T01:41:25;22.48;69.94
72106;SHT30;59975;47.646;18.318;2022-07-23T01:43:51;22.48;69.88
72106;SHT30;59975;47.646;18.318;2022-07-23T01:46:16;22.52;68.85
72106;SHT30;59975;47.646;18.318;2022-07-23T01:48:44;22.52;68.48
72106;SHT30;59975;47.646;18.318;2022-07-23T01:51:09;22.52;68.84
72106;SHT30;59975;47.646;18.318;2022-07-23T01:53:35;22.51;69.42
72106;SHT30;59975;47.646;18.318;2022-07-23T01:56:02;22.44;69.49
72106;SHT30;59975;47.646;18.318;2022-07-23T01:58:30;22.42;69.84
72106;SHT30;59975;47.646;18.318;2022-07-23T02:00:56;22.39;69.40
72106;SHT30;59975;47.646;18.318;2022-07-23T02:03:22;22.36;69.49
72106;SHT30;59975;47.646;18.318;2022-07-23T02:05:49;22.34;69.65
72106;SHT30;59975;47.646;18.318;2022-07-23T02:08:15;22.31;69.42
72106;SHT30;59975;47.646;18.318;2022-07-23T02:10:41;22.29;69.46
72106;SHT30;59975;47.646;18.318;2022-07-23T02:16:30;22.24;67.39
72106;SHT30;59975;47.646;18.318;2022-07-23T02:18:56;22.24;67.36
72106;SHT30;59975;47.646;18.318;2022-07-23T02:21:22;22.22;67.39
72106;SHT30;59975;47.646;18.318;2022-07-23T02:23:48;22.18;67.30
72106;SHT30;59975;47.646;18.318;2022-07-23T02:26:14;22.18;67.53
72106;SHT30;59975;47.646;18.318;2022-07-23T02:28:40;22.19;67.82
72106;SHT30;59975;47.646;18.318;2022-07-23T02:31:06;22.19;67.70
72106;SHT30;59975;47.646;18.318;2022-07-23T02:33:33;22.15;67.72
72106;SHT30;59975;47.646;18.318;2022-07-23T02:36:00;22.12;67.61
72106;SHT30;59975;47.646;18.318;2022-07-23T02:38:25;22.14;67.60
72106;SHT30;59975;47.646;18.318;2022-07-23T02:40:51;22.09;68.43
72106;SHT30;59975;47.646;18.318;2022-07-23T02:43:17;22.11;68.97
72106;SHT30;59975;47.646;18.318;2022-07-23T02:45:43;22.08;70.60
72106;SHT30;59975;47.646;18.318;2022-07-23T02:48:09;22.08;71.28
72106;SHT30;59975;47.646;18.318;2022-07-23T02:50:39;22.08;71.70
72106;SHT30;59975;47.646;18.318;2022-07-23T02:53:05;22.02;72.01
72106;SHT30;59975;47.646;18.318;2022-07-23T02:55:31;22.00;72.89
72106;SHT30;59975;47.646;18.318;2022-07-23T02:57:56;22.02;73.02
72106;SHT30;59975;47.646;18.318;2022-07-23T03:00:22;22.00;73.00
72106;SHT30;59975;47.646;18.318;2022-07-23T03:02:49;22.02;72.97
72106;SHT30;59975;47.646;18.318;2022-07-23T03:05:16;22.02;73.01
72106;SHT30;59975;47.646;18.318;2022-07-23T03:07:43;22.04;72.88
72106;SHT30;59975;47.646;18.318;2022-07-23T03:13:32;22.11;73.69
72106;SHT30;59975;47.646;18.318;2022-07-23T03:15:58;22.08;74.56
72106;SHT30;59975;47.646;18.318;2022-07-23T03:18:25;22.09;74.61
72106;SHT30;59975;47.646;18.318;2022-07-23T03:20:50;22.07;74.27
72106;SHT30;59975;47.646;18.318;2022-07-23T03:26:38;22.08;73.01
72106;SHT30;59975;47.646;18.318;2022-07-23T03:29:06;22.09;72.60
72106;SHT30;59975;47.646;18.318;2022-07-23T03:31:32;22.11;72.06
72106;SHT30;59975;47.646;18.318;2022-07-23T03:33:58;22.16;71.92
72106;SHT30;59975;47.646;18.318;2022-07-23T03:36:25;22.21;71.53
72106;SHT30;59975;47.646;18.318;2022-07-23T03:38:51;22.29;70.72
72106;SHT30;59975;47.646;18.318;2022-07-23T03:41:18;22.46;70.06
72106;SHT30;59975;47.646;18.318;2022-07-23T03:43:46;22.75;68.39
72106;SHT30;59975;47.646;18.318;2022-07-23T03:46:11;23.07;67.23
72106;SHT30;59975;47.646;18.318;2022-07-23T03:52:00;23.95;65.70
72106;SHT30;59975;47.646;18.318;2022-07-23T03:54:25;24.15;65.31
72106;SHT30;59975;47.646;18.318;2022-07-23T03:56:51;24.19;65.28
72106;SHT30;59975;47.646;18.318;2022-07-23T04:02:40;24.08;65.29
72106;SHT30;59975;47.646;18.318;2022-07-23T04:05:06;24.04;65.08
72106;SHT30;59975;47.646;18.318;2022-07-23T04:10:54;24.05;64.87
72106;SHT30;59975;47.646;18.318;2022-07-23T04:13:20;23.98;64.05
72106;SHT30;59975;47.646;18.318;2022-07-23T04:15:46;23.89;63.99
72106;SHT30;59975;47.646;18.318;2022-07-23T04:18:12;23.85;64.16
72106;SHT30;59975;47.646;18.318;2022-07-23T04:20:39;23.84;63.83
72106;SHT30;59975;47.646;18.318;2022-07-23T04:23:06;23.81;63.62
72106;SHT30;59975;47.646;18.318;2022-07-23T04:28:54;23.82;63.89
72106;SHT30;59975;47.646;18.318;2022-07-23T04:31:20;23.85;63.70
72106;SHT30;59975;47.646;18.318;2022-07-23T04:33:45;23.89;63.54
72106;SHT30;59975;47.646;18.318;2022-07-23T04:36:11;23.97;63.28
72106;SHT30;59975;47.646;18.318;2022-07-23T04:38:37;24.04;62.84
72106;SHT30;59975;47.646;18.318;2022-07-23T04:41:02;24.14;62.20
72106;SHT30;59975;47.646;18.318;2022-07-23T04:43:28;24.25;62.45
72106;SHT30;59975;47.646;18.318;2022-07-23T04:45:54;24.33;62.27
72106;SHT30;59975;47.646;18.318;2022-07-23T04:51:41;24.66;60.66
72106;SHT30;59975;47.646;18.318;2022-07-23T04:54:06;24.70;60.79
72106;SHT30;59975;47.646;18.318;2022-07-23T04:56:33;24.83;60.54
72106;SHT30;59975;47.646;18.318;2022-07-23T04:59:00;24.94;60.08
72106;SHT30;59975;47.646;18.318;2022-07-23T05:01:27;25.06;59.67
72106;SHT30;59975;47.646;18.318;2022-07-23T05:03:53;25.21;59.40
72106;SHT30;59975;47.646;18.318;2022-07-23T05:09:42;25.49;57.73
72106;SHT30;59975;47.646;18.318;2022-07-23T05:12:08;25.62;56.60
72106;SHT30;59975;47.646;18.318;2022-07-23T05:14:35;25.68;56.73
72106;SHT30;59975;47.646;18.318;2022-07-23T05:17:01;25.77;57.47
72106;SHT30;59975;47.646;18.318;2022-07-23T05:19:27;25.84;57.78
72106;SHT30;59975;47.646;18.318;2022-07-23T05:21:53;25.86;57.37
72106;SHT30;59975;47.646;18.318;2022-07-23T05:24:19;25.95;58.39
72106;SHT30;59975;47.646;18.318;2022-07-23T05:26:46;26.02;58.24
72106;SHT30;59975;47.646;18.318;2022-07-23T05:29:13;26.08;58.62
72106;SHT30;59975;47.646;18.318;2022-07-23T05:31:39;26.15;59.11
72106;SHT30;59975;47.646;18.318;2022-07-23T05:34:05;26.22;58.89
72106;SHT30;59975;47.646;18.318;2022-07-23T05:36:31;26.32;59.40
72106;SHT30;59975;47.646;18.318;2022-07-23T05:38:57;26.37;59.95
72106;SHT30;59975;47.646;18.318;2022-07-23T05:41:23;26.42;60.70
72106;SHT30;59975;47.646;18.318;2022-07-23T05:43:49;26.50;59.88
72106;SHT30;59975;47.646;18.318;2022-07-23T05:46:15;26.64;59.80
72106;SHT30;59975;47.646;18.318;2022-07-23T05:52:05;26.93;58.50
72106;SHT30;59975;47.646;18.318;2022-07-23T05:54:33;27.01;58.15
72106;SHT30;59975;47.646;18.318;2022-07-23T05:56:59;27.11;57.67
72106;SHT30;59975;47.646;18.318;2022-07-23T05:59:26;27.25;57.43
72106;SHT30;59975;47.646;18.318;2022-07-23T06:01:53;27.35;56.68
72106;SHT30;59975;47.646;18.318;2022-07-23T06:04:19;27.44;57.06
72106;SHT30;59975;47.646;18.318;2022-07-23T06:06:44;27.56;56.35
72106;SHT30;59975;47.646;18.318;2022-07-23T06:09:10;27.62;55.23
72106;SHT30;59975;47.646;18.318;2022-07-23T06:11:38;27.68;54.82
72106;SHT30;59975;47.646;18.318;2022-07-23T06:14:06;27.78;54.38
72106;SHT30;59975;47.646;18.318;2022-07-23T06:16:32;27.96;53.09
72106;SHT30;59975;47.646;18.318;2022-07-23T06:18:59;28.13;52.45
72106;SHT30;59975;47.646;18.318;2022-07-23T06:21:24;28.29;52.41
72106;SHT30;59975;47.646;18.318;2022-07-23T06:23:51;28.43;52.64
72106;SHT30;59975;47.646;18.318;2022-07-23T06:26:17;28.61;53.23
72106;SHT30;59975;47.646;18.318;2022-07-23T06:28:43;28.75;53.68
72106;SHT30;59975;47.646;18.318;2022-07-23T06:31:08;28.88;55.21
72106;SHT30;59975;47.646;18.318;2022-07-23T06:33:34;28.91;56.01
72106;SHT30;59975;47.646;18.318;2022-07-23T06:36:01;29.00;55.54
72106;SHT30;59975;47.646;18.318;2022-07-23T06:38:26;29.12;55.60
72106;SHT30;59975;47.646;18.318;2022-07-23T06:40:52;29.22;55.89
72106;SHT30;59975;47.646;18.318;2022-07-23T06:43:19;29.31;57.00
72106;SHT30;59975;47.646;18.318;2022-07-23T06:45:45;29.45;55.50
72106;SHT30;59975;47.646;18.318;2022-07-23T06:48:10;29.58;54.97
72106;SHT30;59975;47.646;18.318;2022-07-23T06:50:36;29.72;51.95
72106;SHT30;59975;47.646;18.318;2022-07-23T06:53:02;29.96;54.68
72106;SHT30;59975;47.646;18.318;2022-07-23T06:58:52;30.43;52.54
72106;SHT30;59975;47.646;18.318;2022-07-23T07:01:17;30.56;49.10
72106;SHT30;59975;47.646;18.318;2022-07-23T07:03:44;30.85;45.61
72106;SHT30;59975;47.646;18.318;2022-07-23T07:06:09;31.16;43.03
72106;SHT30;59975;47.646;18.318;2022-07-23T07:08:37;31.43;40.21
72106;SHT30;59975;47.646;18.318;2022-07-23T07:11:04;31.63;38.43
72106;SHT30;59975;47.646;18.318;2022-07-23T07:13:29;31.82;46.31
72106;SHT30;59975;47.646;18.318;2022-07-23T07:15:56;31.96;41.35
72106;SHT30;59975;47.646;18.318;2022-07-23T07:18:21;32.07;43.13
72106;SHT30;59975;47.646;18.318;2022-07-23T07:20:47;32.23;39.92
72106;SHT30;59975;47.646;18.318;2022-07-23T07:23:12;32.38;39.59
72106;SHT30;59975;47.646;18.318;2022-07-23T07:25:38;32.57;41.86
72106;SHT30;59975;47.646;18.318;2022-07-23T07:31:26;32.44;40.17
72106;SHT30;59975;47.646;18.318;2022-07-23T07:33:53;32.44;38.41
72106;SHT30;59975;47.646;18.318;2022-07-23T07:36:22;32.55;36.77
72106;SHT30;59975;47.646;18.318;2022-07-23T07:38:49;32.72;35.54
72106;SHT30;59975;47.646;18.318;2022-07-23T07:41:15;32.85;35.17
72106;SHT30;59975;47.646;18.318;2022-07-23T07:43:42;33.05;35.50
72106;SHT30;59975;47.646;18.318;2022-07-23T07:46:08;33.21;34.82
72106;SHT30;59975;47.646;18.318;2022-07-23T07:48:36;33.35;34.91
72106;SHT30;59975;47.646;18.318;2022-07-23T07:51:04;33.33;34.33
72106;SHT30;59975;47.646;18.318;2022-07-23T07:56:51;33.55;33.04
72106;SHT30;59975;47.646;18.318;2022-07-23T07:59:18;33.68;35.41
72106;SHT30;59975;47.646;18.318;2022-07-23T08:01:44;33.68;32.51
72106;SHT30;59975;47.646;18.318;2022-07-23T08:04:09;33.70;32.50
72106;SHT30;59975;47.646;18.318;2022-07-23T08:06:34;33.72;33.09
72106;SHT30;59975;47.646;18.318;2022-07-23T08:09:01;33.76;33.21
72106;SHT30;59975;47.646;18.318;2022-07-23T08:11:26;33.89;33.93
72106;SHT30;59975;47.646;18.318;2022-07-23T08:13:52;33.96;33.51
72106;SHT30;59975;47.646;18.318;2022-07-23T08:19:40;34.06;31.89
72106;SHT30;59975;47.646;18.318;2022-07-23T08:22:06;34.16;32.10
72106;SHT30;59975;47.646;18.318;2022-07-23T08:24:32;34.36;30.64
72106;SHT30;59975;47.646;18.318;2022-07-23T08:26:58;34.54;29.93
72106;SHT30;59975;47.646;18.318;2022-07-23T08:29:24;34.70;29.97
72106;SHT30;59975;47.646;18.318;2022-07-23T08:31:50;34.77;29.68
72106;SHT30;59975;47.646;18.318;2022-07-23T08:34:16;34.81;29.60
72106;SHT30;59975;47.646;18.318;2022-07-23T08:36:42;34.84;29.80
72106;SHT30;59975;47.646;18.318;2022-07-23T08:39:08;34.82;29.22
72106;SHT30;59975;47.646;18.318;2022-07-23T08:41:35;34.77;28.73
72106;SHT30;59975;47.646;18.318;2022-07-23T08:44:01;34.71;29.23
72106;SHT30;59975;47.646;18.318;2022-07-23T08:46:28;34.90;29.18
72106;SHT30;59975;47.646;18.318;2022-07-23T08:48:54;35.03;29.53
72106;SHT30;59975;47.646;18.318;2022-07-23T08:51:25;35.03;29.00
72106;SHT30;59975;47.646;18.318;2022-07-23T08:53:51;35.05;28.63
72106;SHT30;59975;47.646;18.318;2022-07-23T08:56:18;35.11;28.92
72106;SHT30;59975;47.646;18.318;2022-07-23T08:58:44;35.28;29.55
72106;SHT30;59975;47.646;18.318;2022-07-23T09:01:11;35.29;29.33
72106;SHT30;59975;47.646;18.318;2022-07-23T09:03:38;35.33;29.72
72106;SHT30;59975;47.646;18.318;2022-07-23T09:06:05;35.38;29.57
72106;SHT30;59975;47.646;18.318;2022-07-23T09:11:19;35.50;29.45
72106;SHT30;59975;47.646;18.318;2022-07-23T09:13:54;35.25;29.58
72106;SHT30;59975;47.646;18.318;2022-07-23T09:16:26;35.26;29.68
72106;SHT30;59975;47.646;18.318;2022-07-23T09:18:56;35.41;29.37
72106;SHT30;59975;47.646;18.318;2022-07-23T09:21:27;35.66;29.68
72106;SHT30;59975;47.646;18.318;2022-07-23T09:26:36;35.69;28.99
72106;SHT30;59975;47.646;18.318;2022-07-23T09:55:30;36.37;28.06
72106;SHT30;59975;47.646;18.318;2022-07-23T09:58:02;36.07;30.15
72106;SHT30;59975;47.646;18.318;2022-07-23T10:00:31;35.76;30.46
72106;SHT30;59975;47.646;18.318;2022-07-23T10:02:57;35.73;31.04
72106;SHT30;59975;47.646;18.318;2022-07-23T10:05:24;35.90;31.09
72106;SHT30;59975;47.646;18.318;2022-07-23T10:07:51;35.89;30.28
72106;SHT30;59975;47.646;18.318;2022-07-23T10:10:18;35.84;30.70
72106;SHT30;59975;47.646;18.318;2022-07-23T10:12:46;35.60;30.90
72106;SHT30;59975;47.646;18.318;2022-07-23T10:38:37;36.08;29.14
72106;SHT30;59975;47.646;18.318;2022-07-23T10:41:04;36.14;29.26
72106;SHT30;59975;47.646;18.318;2022-07-23T10:43:32;35.82;29.71
72106;SHT30;59975;47.646;18.318;2022-07-23T11:02:32;36.57;29.12
72106;SHT30;59975;47.646;18.318;2022-07-23T11:05:04;36.44;30.08
72106;SHT30;59975;47.646;18.318;2022-07-23T11:07:31;36.36;30.49
72106;SHT30;59975;47.646;18.318;2022-07-23T11:39:46;35.62;31.55
72106;SHT30;59975;47.646;18.318;2022-07-23T11:42:17;35.47;31.84
72106;SHT30;59975;47.646;18.318;2022-07-23T11:44:46;35.42;32.41
72106;SHT30;59975;47.646;18.318;2022-07-23T11:47:12;35.32;32.33
72106;SHT30;59975;47.646;18.318;2022-07-23T11:49:41;35.28;31.99
72106;SHT30;59975;47.646;18.318;2022-07-23T11:52:17;35.02;32.03
72106;SHT30;59975;47.646;18.318;2022-07-23T11:55:05;35.22;32.51
72106;SHT30;59975;47.646;18.318;2022-07-23T11:57:35;35.62;32.21
72106;SHT30;59975;47.646;18.318;2022-07-23T12:16:39;36.55;30.38
72106;SHT30;59975;47.646;18.318;2022-07-23T12:19:05;36.84;29.43
72106;SHT30;59975;47.646;18.318;2022-07-23T12:21:31;37.03;29.50
72106;SHT30;59975;47.646;18.318;2022-07-23T12:24:05;36.82;29.42
72106;SHT30;59975;47.646;18.318;2022-07-23T12:26:31;37.03;30.10
72106;SHT30;59975;47.646;18.318;2022-07-23T12:28:56;37.25;28.79
72106;SHT30;59975;47.646;18.318;2022-07-23T12:31:30;37.35;28.71
72106;SHT30;59975;47.646;18.318;2022-07-23T12:33:56;37.52;28.70
72106;SHT30;59975;47.646;18.318;2022-07-23T12:36:36;37.66;28.68
72106;SHT30;59975;47.646;18.318;2022-07-23T12:39:02;37.79;28.58
72106;SHT30;59975;47.646;18.318;2022-07-23T12:45:10;37.90;29.12
72106;SHT30;59975;47.646;18.318;2022-07-23T12:47:59;37.84;28.90
72106;SHT30;59975;47.646;18.318;2022-07-23T12:57:01;37.29;28.92
72106;SHT30;59975;47.646;18.318;2022-07-23T13:02:50;37.40;28.84
72106;SHT30;59975;47.646;18.318;2022-07-23T13:05:17;37.42;29.31
72106;SHT30;59975;47.646;18.318;2022-07-23T13:07:43;37.39;29.37
72106;SHT30;59975;47.646;18.318;2022-07-23T13:10:09;37.59;29.27
72106;SHT30;59975;47.646;18.318;2022-07-23T13:16:01;37.68;28.55
72106;SHT30;59975;47.646;18.318;2022-07-23T13:21:50;37.97;28.27
72106;SHT30;59975;47.646;18.318;2022-07-23T13:24:16;38.03;28.18
72106;SHT30;59975;47.646;18.318;2022-07-23T13:26:41;37.94;27.77
72106;SHT30;59975;47.646;18.318;2022-07-23T13:29:08;37.87;28.45
72106;SHT30;59975;47.646;18.318;2022-07-23T13:31:36;37.86;27.58
72106;SHT30;59975;47.646;18.318;2022-07-23T13:37:24;38.13;27.77
72106;SHT30;59975;47.646;18.318;2022-07-23T13:43:14;38.38;27.33
72106;SHT30;59975;47.646;18.318;2022-07-23T13:45:41;38.30;26.94
72106;SHT30;59975;47.646;18.318;2022-07-23T13:51:32;38.37;26.86
72106;SHT30;59975;47.646;18.318;2022-07-23T13:53:57;38.55;26.94
72106;SHT30;59975;47.646;18.318;2022-07-23T13:56:26;38.43;26.37
72106;SHT30;59975;47.646;18.318;2022-07-23T13:58:52;38.43;26.48
72106;SHT30;59975;47.646;18.318;2022-07-23T14:04:40;37.86;27.51
72106;SHT30;59975;47.646;18.318;2022-07-23T14:07:07;37.79;27.44
72106;SHT30;59975;47.646;18.318;2022-07-23T14:09:33;37.74;27.50
72106;SHT30;59975;47.646;18.318;2022-07-23T14:11:59;37.74;28.07
72106;SHT30;59975;47.646;18.318;2022-07-23T14:17:48;37.56;27.94
72106;SHT30;59975;47.646;18.318;2022-07-23T14:20:15;37.50;28.06
72106;SHT30;59975;47.646;18.318;2022-07-23T14:22:42;37.38;28.77
72106;SHT30;59975;47.646;18.318;2022-07-23T14:25:08;36.88;29.80
72106;SHT30;59975;47.646;18.318;2022-07-23T14:27:35;36.47;30.61
72106;SHT30;59975;47.646;18.318;2022-07-23T14:30:06;36.33;30.87
72106;SHT30;59975;47.646;18.318;2022-07-23T14:32:33;35.89;31.46
72106;SHT30;59975;47.646;18.318;2022-07-23T14:34:59;35.79;31.58
72106;SHT30;59975;47.646;18.318;2022-07-23T14:37:24;35.57;31.96
72106;SHT30;59975;47.646;18.318;2022-07-23T14:39:51;35.47;31.91
72106;SHT30;59975;47.646;18.318;2022-07-23T14:42:18;35.25;32.35
72106;SHT30;59975;47.646;18.318;2022-07-23T14:44:44;35.06;32.47
72106;SHT30;59975;47.646;18.318;2022-07-23T14:47:11;34.81;32.69
72106;SHT30;59975;47.646;18.318;2022-07-23T14:49:38;34.72;32.65
72106;SHT30;59975;47.646;18.318;2022-07-23T14:52:06;34.57;32.73
72106;SHT30;59975;47.646;18.318;2022-07-23T14:54:33;34.36;33.23
72106;SHT30;59975;47.646;18.318;2022-07-23T14:56:59;34.28;32.80
72106;SHT30;59975;47.646;18.318;2022-07-23T14:59:26;34.21;32.74
72106;SHT30;59975;47.646;18.318;2022-07-23T15:05:15;33.99;33.56
72106;SHT30;59975;47.646;18.318;2022-07-23T15:07:41;33.94;33.25
72106;SHT30;59975;47.646;18.318;2022-07-23T15:10:07;33.86;33.66
72106;SHT30;59975;47.646;18.318;2022-07-23T15:12:33;33.77;32.93
72106;SHT30;59975;47.646;18.318;2022-07-23T15:14:59;33.65;32.93
72106;SHT30;59975;47.646;18.318;2022-07-23T15:17:25;33.60;33.04
72106;SHT30;59975;47.646;18.318;2022-07-23T15:19:50;33.52;32.91
72106;SHT30;59975;47.646;18.318;2022-07-23T15:22:17;33.22;33.50
72106;SHT30;59975;47.646;18.318;2022-07-23T15:24:43;33.04;34.16
72106;SHT30;59975;47.646;18.318;2022-07-23T15:27:10;32.79;34.32
72106;SHT30;59975;47.646;18.318;2022-07-23T15:29:35;32.54;34.56
72106;SHT30;59975;47.646;18.318;2022-07-23T15:32:03;32.40;35.19
72106;SHT30;59975;47.646;18.318;2022-07-23T15:34:29;32.24;36.43
72106;SHT30;59975;47.646;18.318;2022-07-23T15:36:59;31.77;38.60
72106;SHT30;59975;47.646;18.318;2022-07-23T15:39:25;30.89;46.15
72106;SHT30;59975;47.646;18.318;2022-07-23T15:41:51;30.21;50.12
72106;SHT30;59975;47.646;18.318;2022-07-23T15:44:18;29.70;49.17
72106;SHT30;59975;47.646;18.318;2022-07-23T15:46:43;29.41;51.87
72106;SHT30;59975;47.646;18.318;2022-07-23T15:49:09;29.22;54.32
72106;SHT30;59975;47.646;18.318;2022-07-23T15:51:35;29.11;54.44
72106;SHT30;59975;47.646;18.318;2022-07-23T15:54:01;28.95;53.39
72106;SHT30;59975;47.646;18.318;2022-07-23T15:56:29;28.86;53.55
72106;SHT30;59975;47.646;18.318;2022-07-23T15:58:55;28.78;52.36
72106;SHT30;59975;47.646;18.318;2022-07-23T16:01:20;28.73;54.54
72106;SHT30;59975;47.646;18.318;2022-07-23T16:03:46;28.64;55.80
72106;SHT30;59975;47.646;18.318;2022-07-23T16:06:12;28.54;56.36
72106;SHT30;59975;47.646;18.318;2022-07-23T16:08:39;28.37;58.82
72106;SHT30;59975;47.646;18.318;2022-07-23T16:11:04;28.12;59.69
72106;SHT30;59975;47.646;18.318;2022-07-23T16:13:30;27.85;59.31
72106;SHT30;59975;47.646;18.318;2022-07-23T16:15:56;27.76;59.47
72106;SHT30;59975;47.646;18.318;2022-07-23T16:18:22;27.70;60.87
72106;SHT30;59975;47.646;18.318;2022-07-23T16:20:49;27.44;65.31
72106;SHT30;59975;47.646;18.318;2022-07-23T16:23:15;27.18;67.23
72106;SHT30;59975;47.646;18.318;2022-07-23T16:25:41;26.86;69.45
72106;SHT30;59975;47.646;18.318;2022-07-23T16:28:07;26.63;70.08
72106;SHT30;59975;47.646;18.318;2022-07-23T16:30:33;26.57;70.95
72106;SHT30;59975;47.646;18.318;2022-07-23T16:33:01;26.54;71.32
72106;SHT30;59975;47.646;18.318;2022-07-23T16:35:28;26.52;71.24
72106;SHT30;59975;47.646;18.318;2022-07-23T16:37:54;26.59;71.67
72106;SHT30;59975;47.646;18.318;2022-07-23T16:40:21;26.70;70.65
72106;SHT30;59975;47.646;18.318;2022-07-23T16:42:48;26.86;70.30
72106;SHT30;59975;47.646;18.318;2022-07-23T16:45:15;27.00;69.70
72106;SHT30;59975;47.646;18.318;2022-07-23T16:47:43;27.28;68.54
72106;SHT30;59975;47.646;18.318;2022-07-23T16:50:09;27.47;67.89
72106;SHT30;59975;47.646;18.318;2022-07-23T16:52:36;27.52;66.48
72106;SHT30;59975;47.646;18.318;2022-07-23T16:55:03;27.31;66.51
72106;SHT30;59975;47.646;18.318;2022-07-23T16:57:29;27.23;66.69
72106;SHT30;59975;47.646;18.318;2022-07-23T16:59:56;27.24;67.42
72106;SHT30;59975;47.646;18.318;2022-07-23T17:02:21;27.24;66.05
72106;SHT30;59975;47.646;18.318;2022-07-23T17:04:47;27.37;66.59
72106;SHT30;59975;47.646;18.318;2022-07-23T17:07:12;27.41;66.66
72106;SHT30;59975;47.646;18.318;2022-07-23T17:09:39;27.51;68.29
72106;SHT30;59975;47.646;18.318;2022-07-23T17:12:05;27.65;66.30
72106;SHT30;59975;47.646;18.318;2022-07-23T17:14:31;27.81;64.40
72106;SHT30;59975;47.646;18.318;2022-07-23T17:16:57;27.99;64.31
72106;SHT30;59975;47.646;18.318;2022-07-23T17:19:23;28.14;65.07
72106;SHT30;59975;47.646;18.318;2022-07-23T17:21:49;28.33;63.79
72106;SHT30;59975;47.646;18.318;2022-07-23T17:24:15;28.50;62.25
72106;SHT30;59975;47.646;18.318;2022-07-23T17:26:40;28.56;64.56
72106;SHT30;59975;47.646;18.318;2022-07-23T17:29:07;28.67;63.26
72106;SHT30;59975;47.646;18.318;2022-07-23T17:31:33;28.81;61.42
72106;SHT30;59975;47.646;18.318;2022-07-23T17:33:59;28.94;61.34
72106;SHT30;59975;47.646;18.318;2022-07-23T17:36:25;29.26;60.98
72106;SHT30;59975;47.646;18.318;2022-07-23T17:38:51;29.54;59.08
72106;SHT30;59975;47.646;18.318;2022-07-23T17:41:18;29.73;58.78
72106;SHT30;59975;47.646;18.318;2022-07-23T17:43:45;29.83;59.12
72106;SHT30;59975;47.646;18.318;2022-07-23T17:46:11;29.90;56.63
72106;SHT30;59975;47.646;18.318;2022-07-23T17:48:37;29.75;56.13
72106;SHT30;59975;47.646;18.318;2022-07-23T17:51:06;29.46;57.56
72106;SHT30;59975;47.646;18.318;2022-07-23T17:53:32;29.10;59.28
72106;SHT30;59975;47.646;18.318;2022-07-23T17:55:58;28.80;61.64
72106;SHT30;59975;47.646;18.318;2022-07-23T17:58:25;28.54;62.46
72106;SHT30;59975;47.646;18.318;2022-07-23T18:00:51;28.36;63.09
72106;SHT30;59975;47.646;18.318;2022-07-23T18:03:17;28.09;62.62
72106;SHT30;59975;47.646;18.318;2022-07-23T18:05:43;27.82;63.08
72106;SHT30;59975;47.646;18.318;2022-07-23T18:08:09;27.56;65.64
72106;SHT30;59975;47.646;18.318;2022-07-23T18:10:36;27.35;65.44
72106;SHT30;59975;47.646;18.318;2022-07-23T18:13:03;27.15;65.40
72106;SHT30;59975;47.646;18.318;2022-07-23T18:15:31;27.01;65.94
72106;SHT30;59975;47.646;18.318;2022-07-23T18:17:58;26.84;66.46
72106;SHT30;59975;47.646;18.318;2022-07-23T18:20:25;26.72;66.72
72106;SHT30;59975;47.646;18.318;2022-07-23T18:22:51;26.60;67.65
72106;SHT30;59975;47.646;18.318;2022-07-23T18:25:18;26.44;68.20
72106;SHT30;59975;47.646;18.318;2022-07-23T18:31:06;26.16;69.12
72106;SHT30;59975;47.646;18.318;2022-07-23T18:33:32;26.08;69.90
72106;SHT30;59975;47.646;18.318;2022-07-23T18:35:58;25.96;70.85
72106;SHT30;59975;47.646;18.318;2022-07-23T18:38:26;25.89;73.61
72106;SHT30;59975;47.646;18.318;2022-07-23T18:40:52;25.79;75.60
72106;SHT30;59975;47.646;18.318;2022-07-23T18:43:18;25.68;76.11
72106;SHT30;59975;47.646;18.318;2022-07-23T18:45:45;25.54;76.55
72106;SHT30;59975;47.646;18.318;2022-07-23T18:48:11;25.45;76.78
72106;SHT30;59975;47.646;18.318;2022-07-23T18:54:01;25.23;76.63
72106;SHT30;59975;47.646;18.318;2022-07-23T18:56:35;25.16;77.15
72106;SHT30;59975;47.646;18.318;2022-07-23T18:59:01;25.06;76.77
72106;SHT30;59975;47.646;18.318;2022-07-23T19:01:27;25.00;76.59
72106;SHT30;59975;47.646;18.318;2022-07-23T19:03:55;24.94;77.17